sensor_id;sensor_type;location;lat;lon;timestamp;pressure;altitude;pressure_sealevel;temperature;humidity
20971;BME280;10644;48.834;10.088;2023-05-23T00:01:23;96432.16;;;23.18;54.86
20971;BME280;10644;48.834;10.088;2023-05-23T00:03:49;96429.38;;;23.19;55.15
20971;BME280;10644;48.834;10.088;2023-05-23T00:06:18;96431.34;;;23.17;54.49
20971;BME280;10644;48.834;10.088;2023-05-23T00:08:45;96428.53;;;23.03;55.45
20971;BME280;10644;48.834;10.088;2023-05-23T00:11:13;96414.53;;;23.04;55.27
20971;BME280;10644;48.834;10.088;2023-05-23T00:13:38;96424.66;;;22.99;55.44
20971;BME280;10644;48.834;10.088;2023-05-23T00:16:04;96429.88;;;22.99;55.41
20971;BME280;10644;48.834;10.088;2023-05-23T00:18:36;96433.47;;;22.98;55.52
20971;BME280;10644;48.834;10.088;2023-05-23T00:21:02;96424.00;;;22.81;55.86
20971;BME280;10644;48.834;10.088;2023-05-23T00:23:28;96435.59;;;22.86;55.64
20971;BME280;10644;48.834;10.088;2023-05-23T00:25:54;96434.78;;;22.78;55.78
20971;BME280;10644;48.834;10.088;2023-05-23T00:28:20;96441.16;;;22.75;55.89
20971;BME280;10644;48.834;10.088;2023-05-23T00:30:46;96442.63;;;22.70;55.97
20971;BME280;10644;48.834;10.088;2023-05-23T00:33:15;96437.06;;;22.49;56.86
20971;BME280;10644;48.834;10.088;2023-05-23T00:35:41;96438.69;;;22.50;56.81
20971;BME280;10644;48.834;10.088;2023-05-23T00:38:06;96445.50;;;22.43;56.99
20971;BME280;10644;48.834;10.088;2023-05-23T00:40:33;96431.44;;;22.28;57.48
20971;BME280;10644;48.834;10.088;2023-05-23T00:42:59;96435.31;;;22.24;57.65
20971;BME280;10644;48.834;10.088;2023-05-23T00:45:25;96439.59;;;22.33;57.37
20971;BME280;10644;48.834;10.088;2023-05-23T00:47:50;96426.53;;;22.41;57.04
20971;BME280;10644;48.834;10.088;2023-05-23T00:50:17;96438.38;;;22.53;56.86
20971;BME280;10644;48.834;10.088;2023-05-23T00:52:44;96440.31;;;22.51;56.59
20971;BME280;10644;48.834;10.088;2023-05-23T00:55:11;96435.09;;;22.59;56.78
20971;BME280;10644;48.834;10.088;2023-05-23T00:57:37;96426.72;;;22.39;57.11
20971;BME280;10644;48.834;10.088;2023-05-23T01:00:09;96431.13;;;22.31;57.20
20971;BME280;10644;48.834;10.088;2023-05-23T01:02:42;96439.25;;;22.28;57.29
20971;BME280;10644;48.834;10.088;2023-05-23T01:05:09;96423.59;;;22.28;57.38
20971;BME280;10644;48.834;10.088;2023-05-23T01:07:37;96432.09;;;22.38;57.49
20971;BME280;10644;48.834;10.088;2023-05-23T01:10:03;96430.94;;;22.32;57.62
20971;BME280;10644;48.834;10.088;2023-05-23T01:15:27;96441.19;;;22.18;57.99
20971;BME280;10644;48.834;10.088;2023-05-23T01:18:19;96442.66;;;22.12;57.31
20971;BME280;10644;48.834;10.088;2023-05-23T01:20:59;96447.38;;;22.17;57.48
20971;BME280;10644;48.834;10.088;2023-05-23T01:23:53;96446.09;;;22.29;56.98
20971;BME280;10644;48.834;10.088;2023-05-23T01:27:04;96436.00;;;22.34;56.89
20971;BME280;10644;48.834;10.088;2023-05-23T01:29:36;96437.94;;;22.24;57.67
20971;BME280;10644;48.834;10.088;2023-05-23T01:32:04;96440.88;;;22.21;57.74
20971;BME280;10644;48.834;10.088;2023-05-23T01:34:35;96445.44;;;22.19;58.02
20971;BME280;10644;48.834;10.088;2023-05-23T01:37:01;96430.75;;;22.18;58.03
20971;BME280;10644;48.834;10.088;2023-05-23T01:39:26;96440.38;;;22.17;57.94
20971;BME280;10644;48.834;10.088;2023-05-23T01:41:52;96450.84;;;22.17;58.22
20971;BME280;10644;48.834;10.088;2023-05-23T01:44:22;96448.81;;;22.03;58.15
20971;BME280;10644;48.834;10.088;2023-05-23T01:46:47;96455.50;;;21.98;58.17
20971;BME280;10644;48.834;10.088;2023-05-23T01:49:14;96445.88;;;21.98;58.51
20971;BME280;10644;48.834;10.088;2023-05-23T01:51:41;96446.22;;;22.03;58.45
20971;BME280;10644;48.834;10.088;2023-05-23T01:54:08;96454.25;;;21.76;59.25
20971;BME280;10644;48.834;10.088;2023-05-23T01:56:33;96456.84;;;21.76;58.88
20971;BME280;10644;48.834;10.088;2023-05-23T01:59:01;96458.69;;;21.84;59.14
20971;BME280;10644;48.834;10.088;2023-05-23T02:01:27;96457.06;;;21.83;59.34
20971;BME280;10644;48.834;10.088;2023-05-23T02:03:53;96457.38;;;21.80;58.88
20971;BME280;10644;48.834;10.088;2023-05-23T02:06:18;96451.66;;;21.76;59.08
20971;BME280;10644;48.834;10.088;2023-05-23T02:08:44;96460.50;;;21.83;59.33
20971;BME280;10644;48.834;10.088;2023-05-23T02:11:12;96459.66;;;21.83;59.42
20971;BME280;10644;48.834;10.088;2023-05-23T02:13:37;96469.75;;;21.78;59.91
20971;BME280;10644;48.834;10.088;2023-05-23T02:16:03;96467.72;;;21.64;60.35
20971;BME280;10644;48.834;10.088;2023-05-23T02:18:28;96472.84;;;21.48;61.34
20971;BME280;10644;48.834;10.088;2023-05-23T02:20:54;96473.59;;;21.15;62.92
20971;BME280;10644;48.834;10.088;2023-05-23T02:23:20;96469.03;;;21.17;62.73
20971;BME280;10644;48.834;10.088;2023-05-23T02:25:46;96470.88;;;20.99;63.53
20971;BME280;10644;48.834;10.088;2023-05-23T02:28:11;96468.59;;;20.96;63.78
20971;BME280;10644;48.834;10.088;2023-05-23T02:30:37;96468.38;;;21.15;63.25
20971;BME280;10644;48.834;10.088;2023-05-23T02:33:06;96464.88;;;21.24;62.69
20971;BME280;10644;48.834;10.088;2023-05-23T02:35:32;96465.16;;;21.21;63.02
20971;BME280;10644;48.834;10.088;2023-05-23T02:37:58;96467.28;;;21.00;63.96
20971;BME280;10644;48.834;10.088;2023-05-23T02:40:23;96464.75;;;21.08;63.48
20971;BME280;10644;48.834;10.088;2023-05-23T02:42:48;96462.19;;;21.16;63.07
20971;BME280;10644;48.834;10.088;2023-05-23T02:45:16;96461.41;;;21.15;63.21
20971;BME280;10644;48.834;10.088;2023-05-23T02:47:41;96468.59;;;21.21;63.02
20971;BME280;10644;48.834;10.088;2023-05-23T02:50:07;96466.63;;;20.98;64.06
20971;BME280;10644;48.834;10.088;2023-05-23T02:52:32;96472.13;;;20.95;63.69
20971;BME280;10644;48.834;10.088;2023-05-23T02:55:00;96461.13;;;21.01;63.56
20971;BME280;10644;48.834;10.088;2023-05-23T02:57:25;96474.22;;;21.09;63.45
20971;BME280;10644;48.834;10.088;2023-05-23T02:59:53;96466.50;;;20.99;64.02
20971;BME280;10644;48.834;10.088;2023-05-23T03:02:19;96460.31;;;21.00;63.77
20971;BME280;10644;48.834;10.088;2023-05-23T03:04:47;96469.38;;;21.14;63.67
20971;BME280;10644;48.834;10.088;2023-05-23T03:07:13;96465.16;;;21.21;63.34
20971;BME280;10644;48.834;10.088;2023-05-23T03:09:39;96464.34;;;21.20;63.41
20971;BME280;10644;48.834;10.088;2023-05-23T03:12:05;96469.81;;;21.09;63.77
20971;BME280;10644;48.834;10.088;2023-05-23T03:14:30;96460.44;;;20.99;64.25
20971;BME280;10644;48.834;10.088;2023-05-23T03:16:56;96452.59;;;20.91;64.56
20971;BME280;10644;48.834;10.088;2023-05-23T03:19:21;96462.06;;;21.00;64.14
20971;BME280;10644;48.834;10.088;2023-05-23T03:21:46;96465.59;;;20.91;64.70
20971;BME280;10644;48.834;10.088;2023-05-23T03:24:14;96480.59;;;20.79;65.04
20971;BME280;10644;48.834;10.088;2023-05-23T03:26:42;96470.22;;;20.97;64.50
20971;BME280;10644;48.834;10.088;2023-05-23T03:29:07;96479.06;;;21.04;64.45
20971;BME280;10644;48.834;10.088;2023-05-23T03:31:35;96481.69;;;21.12;64.10
20971;BME280;10644;48.834;10.088;2023-05-23T03:34:01;96477.84;;;21.16;64.01
20971;BME280;10644;48.834;10.088;2023-05-23T03:36:26;96475.94;;;21.00;64.50
20971;BME280;10644;48.834;10.088;2023-05-23T03:38:52;96488.13;;;21.00;64.73
20971;BME280;10644;48.834;10.088;2023-05-23T03:41:18;96483.16;;;20.89;64.62
20971;BME280;10644;48.834;10.088;2023-05-23T03:43:43;96478.47;;;20.75;66.00
20971;BME280;10644;48.834;10.088;2023-05-23T03:46:08;96483.28;;;20.87;65.31
20971;BME280;10644;48.834;10.088;2023-05-23T03:48:34;96486.97;;;20.94;64.89
20971;BME280;10644;48.834;10.088;2023-05-23T03:51:00;96500.03;;;20.85;65.54
20971;BME280;10644;48.834;10.088;2023-05-23T03:53:25;96504.50;;;20.75;66.12
20971;BME280;10644;48.834;10.088;2023-05-23T03:55:50;96506.28;;;20.57;66.93
20971;BME280;10644;48.834;10.088;2023-05-23T03:58:19;96495.88;;;20.57;66.83
20971;BME280;10644;48.834;10.088;2023-05-23T04:00:44;96503.75;;;20.47;67.37
20971;BME280;10644;48.834;10.088;2023-05-23T04:03:10;96513.41;;;20.55;67.16
20971;BME280;10644;48.834;10.088;2023-05-23T04:05:38;96508.19;;;20.55;67.10
20971;BME280;10644;48.834;10.088;2023-05-23T04:08:03;96505.69;;;20.63;66.83
20971;BME280;10644;48.834;10.088;2023-05-23T04:10:31;96499.28;;;20.57;67.17
20971;BME280;10644;48.834;10.088;2023-05-23T04:12:56;96498.69;;;20.46;67.58
20971;BME280;10644;48.834;10.088;2023-05-23T04:15:22;96506.00;;;20.33;68.08
20971;BME280;10644;48.834;10.088;2023-05-23T04:17:49;96497.31;;;20.24;68.54
20971;BME280;10644;48.834;10.088;2023-05-23T04:20:15;96503.28;;;20.34;68.22
20971;BME280;10644;48.834;10.088;2023-05-23T04:22:41;96509.75;;;20.48;67.80
20971;BME280;10644;48.834;10.088;2023-05-23T04:25:09;96502.94;;;20.64;67.03
20971;BME280;10644;48.834;10.088;2023-05-23T04:27:34;96499.88;;;20.69;66.88
20971;BME280;10644;48.834;10.088;2023-05-23T04:30:00;96499.38;;;20.65;66.98
20971;BME280;10644;48.834;10.088;2023-05-23T04:32:26;96498.84;;;20.62;67.30
20971;BME280;10644;48.834;10.088;2023-05-23T04:34:53;96498.78;;;20.71;66.71
20971;BME280;10644;48.834;10.088;2023-05-23T04:37:20;96492.59;;;20.72;66.85
20971;BME280;10644;48.834;10.088;2023-05-23T04:39:47;96500.16;;;20.66;67.11
20971;BME280;10644;48.834;10.088;2023-05-23T04:42:12;96507.00;;;20.67;67.16
20971;BME280;10644;48.834;10.088;2023-05-23T04:44:38;96515.50;;;20.69;67.39
20971;BME280;10644;48.834;10.088;2023-05-23T04:47:06;96522.88;;;20.56;67.61
20971;BME280;10644;48.834;10.088;2023-05-23T04:49:35;96504.69;;;20.46;67.93
20971;BME280;10644;48.834;10.088;2023-05-23T04:52:00;96517.13;;;20.35;68.47
20971;BME280;10644;48.834;10.088;2023-05-23T04:54:26;96517.97;;;20.26;68.77
20971;BME280;10644;48.834;10.088;2023-05-23T04:56:51;96527.16;;;20.30;69.04
20971;BME280;10644;48.834;10.088;2023-05-23T04:59:16;96527.41;;;20.27;68.76
20971;BME280;10644;48.834;10.088;2023-05-23T05:01:42;96522.00;;;20.38;68.25
20971;BME280;10644;48.834;10.088;2023-05-23T05:04:07;96528.66;;;20.50;67.80
20971;BME280;10644;48.834;10.088;2023-05-23T05:06:33;96523.09;;;20.45;68.33
20971;BME280;10644;48.834;10.088;2023-05-23T05:09:01;96532.47;;;20.55;67.94
20971;BME280;10644;48.834;10.088;2023-05-23T05:11:28;96529.69;;;20.39;68.16
20971;BME280;10644;48.834;10.088;2023-05-23T05:13:54;96536.59;;;20.31;68.37
20971;BME280;10644;48.834;10.088;2023-05-23T05:16:19;96531.38;;;20.31;68.73
20971;BME280;10644;48.834;10.088;2023-05-23T05:18:47;96547.75;;;20.41;68.21
20971;BME280;10644;48.834;10.088;2023-05-23T05:21:12;96541.00;;;20.48;67.97
20971;BME280;10644;48.834;10.088;2023-05-23T05:23:37;96544.06;;;20.61;67.73
20971;BME280;10644;48.834;10.088;2023-05-23T05:26:03;96547.84;;;20.49;67.63
20971;BME280;10644;48.834;10.088;2023-05-23T05:28:29;96534.63;;;20.33;68.23
20971;BME280;10644;48.834;10.088;2023-05-23T05:30:54;96536.81;;;20.37;68.25
20971;BME280;10644;48.834;10.088;2023-05-23T05:33:21;96545.75;;;20.52;68.06
20971;BME280;10644;48.834;10.088;2023-05-23T05:35:48;96539.41;;;20.64;67.61
20971;BME280;10644;48.834;10.088;2023-05-23T05:38:15;96545.41;;;20.65;66.90
20971;BME280;10644;48.834;10.088;2023-05-23T05:40:40;96550.25;;;20.77;66.38
20971;BME280;10644;48.834;10.088;2023-05-23T05:43:05;96550.78;;;20.81;66.45
20971;BME280;10644;48.834;10.088;2023-05-23T05:45:31;96557.25;;;20.77;66.42
20971;BME280;10644;48.834;10.088;2023-05-23T05:47:57;96552.72;;;20.79;66.86
20971;BME280;10644;48.834;10.088;2023-05-23T05:50:22;96556.50;;;20.84;66.10
20971;BME280;10644;48.834;10.088;2023-05-23T05:52:50;96566.50;;;20.89;65.43
20971;BME280;10644;48.834;10.088;2023-05-23T05:55:15;96558.44;;;20.82;65.59
20971;BME280;10644;48.834;10.088;2023-05-23T05:57:41;96556.28;;;20.78;65.29
20971;BME280;10644;48.834;10.088;2023-05-23T06:02:39;96564.28;;;20.67;65.83
20971;BME280;10644;48.834;10.088;2023-05-23T06:05:11;96556.34;;;20.68;65.77
20971;BME280;10644;48.834;10.088;2023-05-23T06:07:38;96560.22;;;20.82;65.71
20971;BME280;10644;48.834;10.088;2023-05-23T06:10:04;96568.97;;;20.63;66.12
20971;BME280;10644;48.834;10.088;2023-05-23T06:12:30;96548.38;;;20.70;65.86
20971;BME280;10644;48.834;10.088;2023-05-23T06:14:55;96557.69;;;20.72;65.77
20971;BME280;10644;48.834;10.088;2023-05-23T06:17:21;96563.09;;;20.88;65.49
20971;BME280;10644;48.834;10.088;2023-05-23T06:19:46;96558.97;;;20.86;65.29
20971;BME280;10644;48.834;10.088;2023-05-23T06:22:11;96557.44;;;20.93;65.14
20971;BME280;10644;48.834;10.088;2023-05-23T06:24:37;96554.00;;;21.10;64.72
20971;BME280;10644;48.834;10.088;2023-05-23T06:27:02;96552.78;;;21.22;64.40
20971;BME280;10644;48.834;10.088;2023-05-23T06:29:29;96558.97;;;21.21;64.45
20971;BME280;10644;48.834;10.088;2023-05-23T06:31:55;96541.41;;;21.23;64.11
20971;BME280;10644;48.834;10.088;2023-05-23T06:34:21;96543.75;;;21.34;64.32
20971;BME280;10644;48.834;10.088;2023-05-23T06:36:46;96548.06;;;21.43;63.64
20971;BME280;10644;48.834;10.088;2023-05-23T06:39:12;96553.69;;;21.56;63.61
20971;BME280;10644;48.834;10.088;2023-05-23T06:41:38;96567.94;;;21.61;62.81
20971;BME280;10644;48.834;10.088;2023-05-23T06:44:04;96557.25;;;21.47;63.81
20971;BME280;10644;48.834;10.088;2023-05-23T06:46:29;96560.47;;;21.41;63.37
20971;BME280;10644;48.834;10.088;2023-05-23T06:48:57;96556.38;;;21.38;63.43
20971;BME280;10644;48.834;10.088;2023-05-23T06:51:25;96561.72;;;21.19;64.05
20971;BME280;10644;48.834;10.088;2023-05-23T06:53:50;96569.94;;;21.07;64.18
20971;BME280;10644;48.834;10.088;2023-05-23T06:56:16;96570.00;;;21.15;64.06
20971;BME280;10644;48.834;10.088;2023-05-23T06:58:43;96574.19;;;21.08;63.99
20971;BME280;10644;48.834;10.088;2023-05-23T07:01:09;96581.41;;;21.14;63.44
20971;BME280;10644;48.834;10.088;2023-05-23T07:03:35;96578.72;;;21.06;63.76
20971;BME280;10644;48.834;10.088;2023-05-23T07:06:02;96590.63;;;20.91;63.80
20971;BME280;10644;48.834;10.088;2023-05-23T07:08:28;96583.34;;;20.94;63.83
20971;BME280;10644;48.834;10.088;2023-05-23T07:10:53;96575.16;;;21.07;62.82
20971;BME280;10644;48.834;10.088;2023-05-23T07:13:18;96581.44;;;20.87;63.44
20971;BME280;10644;48.834;10.088;2023-05-23T07:15:43;96587.47;;;20.87;63.58
20971;BME280;10644;48.834;10.088;2023-05-23T07:18:09;96589.25;;;20.87;63.91
20971;BME280;10644;48.834;10.088;2023-05-23T07:20:35;96585.00;;;20.86;63.54
20971;BME280;10644;48.834;10.088;2023-05-23T07:23:00;96591.72;;;21.06;62.79
20971;BME280;10644;48.834;10.088;2023-05-23T07:25:26;96597.47;;;20.92;63.05
20971;BME280;10644;48.834;10.088;2023-05-23T07:27:54;96600.53;;;21.05;62.89
20971;BME280;10644;48.834;10.088;2023-05-23T07:30:20;96602.41;;;21.12;62.81
20971;BME280;10644;48.834;10.088;2023-05-23T07:32:47;96598.00;;;21.13;62.62
20971;BME280;10644;48.834;10.088;2023-05-23T07:35:13;96602.41;;;21.12;62.63
20971;BME280;10644;48.834;10.088;2023-05-23T07:37:38;96592.50;;;21.16;62.84
20971;BME280;10644;48.834;10.088;2023-05-23T07:40:07;96608.56;;;21.29;62.32
20971;BME280;10644;48.834;10.088;2023-05-23T07:42:33;96600.81;;;21.37;61.52
20971;BME280;10644;48.834;10.088;2023-05-23T07:44:59;96598.59;;;21.24;61.33
20971;BME280;10644;48.834;10.088;2023-05-23T07:47:25;96596.44;;;21.02;62.32
20971;BME280;10644;48.834;10.088;2023-05-23T07:49:56;96593.47;;;21.15;61.90
20971;BME280;10644;48.834;10.088;2023-05-23T07:52:21;96602.47;;;21.03;62.32
20971;BME280;10644;48.834;10.088;2023-05-23T07:54:47;96615.56;;;20.84;62.77
20971;BME280;10644;48.834;10.088;2023-05-23T07:57:14;96604.44;;;20.74;63.26
20971;BME280;10644;48.834;10.088;2023-05-23T07:59:40;96611.75;;;20.61;63.73
20971;BME280;10644;48.834;10.088;2023-05-23T08:02:06;96609.53;;;20.66;63.16
20971;BME280;10644;48.834;10.088;2023-05-23T08:04:31;96603.59;;;20.73;63.02
20971;BME280;10644;48.834;10.088;2023-05-23T08:06:59;96606.31;;;20.99;62.20
20971;BME280;10644;48.834;10.088;2023-05-23T08:09:25;96607.44;;;20.96;62.14
20971;BME280;10644;48.834;10.088;2023-05-23T08:11:51;96599.13;;;21.10;61.88
20971;BME280;10644;48.834;10.088;2023-05-23T08:14:16;96607.09;;;21.09;61.88
20971;BME280;10644;48.834;10.088;2023-05-23T08:16:42;96608.34;;;21.22;61.87
20971;BME280;10644;48.834;10.088;2023-05-23T08:19:07;96606.31;;;21.34;60.66
20971;BME280;10644;48.834;10.088;2023-05-23T08:21:34;96595.38;;;21.30;60.45
20971;BME280;10644;48.834;10.088;2023-05-23T08:24:00;96608.78;;;21.35;59.98
20971;BME280;10644;48.834;10.088;2023-05-23T08:26:26;96604.81;;;21.49;60.19
20971;BME280;10644;48.834;10.088;2023-05-23T08:28:54;96608.81;;;21.61;59.27
20971;BME280;10644;48.834;10.088;2023-05-23T08:31:20;96604.59;;;21.42;58.80
20971;BME280;10644;48.834;10.088;2023-05-23T08:33:45;96609.47;;;21.20;59.65
20971;BME280;10644;48.834;10.088;2023-05-23T08:36:12;96604.25;;;21.20;59.58
20971;BME280;10644;48.834;10.088;2023-05-23T08:38:37;96617.63;;;21.42;59.72
20971;BME280;10644;48.834;10.088;2023-05-23T08:41:14;96619.34;;;21.34;59.98
20971;BME280;10644;48.834;10.088;2023-05-23T08:43:40;96615.84;;;21.43;59.13
20971;BME280;10644;48.834;10.088;2023-05-23T08:46:05;96614.03;;;21.61;58.18
20971;BME280;10644;48.834;10.088;2023-05-23T08:48:33;96614.19;;;21.77;57.68
20971;BME280;10644;48.834;10.088;2023-05-23T08:50:59;96618.38;;;21.70;57.92
20971;BME280;10644;48.834;10.088;2023-05-23T08:53:27;96614.16;;;21.69;57.83
20971;BME280;10644;48.834;10.088;2023-05-23T08:55:55;96607.25;;;21.85;57.57
20971;BME280;10644;48.834;10.088;2023-05-23T08:58:23;96613.44;;;21.67;57.96
20971;BME280;10644;48.834;10.088;2023-05-23T09:00:53;96623.00;;;21.76;57.75
20971;BME280;10644;48.834;10.088;2023-05-23T09:03:19;96633.28;;;21.60;58.02
20971;BME280;10644;48.834;10.088;2023-05-23T09:05:48;96628.25;;;21.41;58.86
20971;BME280;10644;48.834;10.088;2023-05-23T09:08:15;96629.50;;;21.37;58.87
20971;BME280;10644;48.834;10.088;2023-05-23T09:10:41;96629.50;;;21.54;58.78
20971;BME280;10644;48.834;10.088;2023-05-23T09:13:09;96626.09;;;21.62;58.72
20971;BME280;10644;48.834;10.088;2023-05-23T09:15:34;96623.28;;;21.73;57.39
20971;BME280;10644;48.834;10.088;2023-05-23T09:18:01;96636.16;;;21.92;57.61
20971;BME280;10644;48.834;10.088;2023-05-23T09:20:27;96637.78;;;21.93;57.26
20971;BME280;10644;48.834;10.088;2023-05-23T09:22:55;96653.66;;;21.99;57.85
20971;BME280;10644;48.834;10.088;2023-05-23T09:25:20;96639.38;;;21.86;57.98
20971;BME280;10644;48.834;10.088;2023-05-23T09:27:46;96654.41;;;21.92;57.32
20971;BME280;10644;48.834;10.088;2023-05-23T09:30:14;96653.59;;;21.91;56.71
20971;BME280;10644;48.834;10.088;2023-05-23T09:32:40;96654.09;;;21.95;56.65
20971;BME280;10644;48.834;10.088;2023-05-23T09:35:07;96638.88;;;22.08;56.14
20971;BME280;10644;48.834;10.088;2023-05-23T09:37:42;96639.47;;;22.02;56.05
20971;BME280;10644;48.834;10.088;2023-05-23T09:40:14;96643.38;;;21.98;55.88
20971;BME280;10644;48.834;10.088;2023-05-23T09:42:47;96640.00;;;22.05;55.61
20971;BME280;10644;48.834;10.088;2023-05-23T09:45:13;96635.19;;;21.93;55.77
20971;BME280;10644;48.834;10.088;2023-05-23T09:47:48;96640.19;;;21.86;56.27
20971;BME280;10644;48.834;10.088;2023-05-23T09:50:14;96640.94;;;22.04;55.88
20971;BME280;10644;48.834;10.088;2023-05-23T09:52:40;96643.97;;;22.17;55.84
20971;BME280;10644;48.834;10.088;2023-05-23T09:55:06;96636.69;;;22.29;55.81
20971;BME280;10644;48.834;10.088;2023-05-23T09:57:34;96639.16;;;22.30;56.04
20971;BME280;10644;48.834;10.088;2023-05-23T10:00:10;96645.22;;;22.39;55.25
20971;BME280;10644;48.834;10.088;2023-05-23T10:02:54;96646.31;;;22.54;54.72
20971;BME280;10644;48.834;10.088;2023-05-23T10:05:46;96646.47;;;22.27;54.77
20971;BME280;10644;48.834;10.088;2023-05-23T10:08:26;96648.97;;;22.36;54.07
20971;BME280;10644;48.834;10.088;2023-05-23T10:13:26;96650.72;;;22.28;54.66
20971;BME280;10644;48.834;10.088;2023-05-23T10:16:03;96659.03;;;21.98;54.91
20971;BME280;10644;48.834;10.088;2023-05-23T10:18:37;96655.72;;;21.96;54.79
20971;BME280;10644;48.834;10.088;2023-05-23T10:21:08;96654.84;;;21.87;55.19
20971;BME280;10644;48.834;10.088;2023-05-23T10:23:36;96658.50;;;22.20;54.71
20971;BME280;10644;48.834;10.088;2023-05-23T10:26:03;96658.59;;;22.36;53.90
20971;BME280;10644;48.834;10.088;2023-05-23T10:28:30;96653.59;;;22.17;54.40
20971;BME280;10644;48.834;10.088;2023-05-23T10:30:56;96654.81;;;22.30;53.50
20971;BME280;10644;48.834;10.088;2023-05-23T10:33:22;96645.75;;;22.17;53.51
20971;BME280;10644;48.834;10.088;2023-05-23T10:38:42;96656.25;;;22.25;53.76
20971;BME280;10644;48.834;10.088;2023-05-23T10:41:15;96657.91;;;22.26;53.41
20971;BME280;10644;48.834;10.088;2023-05-23T10:44:06;96663.63;;;22.29;53.34
20971;BME280;10644;48.834;10.088;2023-05-23T10:49:18;96656.28;;;22.33;52.53
20971;BME280;10644;48.834;10.088;2023-05-23T10:51:47;96660.53;;;22.34;52.83
20971;BME280;10644;48.834;10.088;2023-05-23T10:54:14;96660.41;;;22.69;52.30
20971;BME280;10644;48.834;10.088;2023-05-23T10:56:39;96669.56;;;22.73;51.63
20971;BME280;10644;48.834;10.088;2023-05-23T10:59:04;96656.66;;;22.38;51.44
20971;BME280;10644;48.834;10.088;2023-05-23T11:01:33;96662.53;;;22.40;52.22
20971;BME280;10644;48.834;10.088;2023-05-23T11:04:06;96662.22;;;22.43;52.28
20971;BME280;10644;48.834;10.088;2023-05-23T11:06:39;96661.88;;;22.38;51.66
20971;BME280;10644;48.834;10.088;2023-05-23T11:12:04;96661.38;;;22.60;51.52
20971;BME280;10644;48.834;10.088;2023-05-23T11:14:51;96663.66;;;22.37;51.66
20971;BME280;10644;48.834;10.088;2023-05-23T11:17:28;96665.47;;;22.37;51.90
20971;BME280;10644;48.834;10.088;2023-05-23T11:22:27;96666.78;;;22.41;51.84
20971;BME280;10644;48.834;10.088;2023-05-23T11:24:54;96667.56;;;22.33;51.35
20971;BME280;10644;48.834;10.088;2023-05-23T11:27:35;96674.28;;;22.36;51.96
20971;BME280;10644;48.834;10.088;2023-05-23T11:30:08;96667.22;;;22.28;51.34
20971;BME280;10644;48.834;10.088;2023-05-23T11:32:35;96669.97;;;22.27;51.44
20971;BME280;10644;48.834;10.088;2023-05-23T11:35:10;96681.22;;;22.02;52.04
20971;BME280;10644;48.834;10.088;2023-05-23T11:37:38;96677.22;;;22.15;51.98
20971;BME280;10644;48.834;10.088;2023-05-23T11:40:37;96676.78;;;22.20;52.12
20971;BME280;10644;48.834;10.088;2023-05-23T11:43:04;96673.50;;;22.18;51.79
20971;BME280;10644;48.834;10.088;2023-05-23T11:45:31;96675.84;;;22.29;51.06
20971;BME280;10644;48.834;10.088;2023-05-23T11:47:57;96680.34;;;22.19;51.06
20971;BME280;10644;48.834;10.088;2023-05-23T11:50:22;96671.09;;;22.24;50.35
20971;BME280;10644;48.834;10.088;2023-05-23T11:52:50;96679.19;;;22.13;50.84
20971;BME280;10644;48.834;10.088;2023-05-23T11:55:18;96680.44;;;22.35;51.11
20971;BME280;10644;48.834;10.088;2023-05-23T11:57:43;96678.44;;;22.46;50.09
20971;BME280;10644;48.834;10.088;2023-05-23T12:00:10;96676.19;;;22.59;49.51
20971;BME280;10644;48.834;10.088;2023-05-23T12:02:40;96667.38;;;22.60;49.45
20971;BME280;10644;48.834;10.088;2023-05-23T12:05:10;96669.63;;;22.81;49.17
20971;BME280;10644;48.834;10.088;2023-05-23T12:07:43;96667.66;;;22.91;48.10
20971;BME280;10644;48.834;10.088;2023-05-23T12:10:09;96667.28;;;22.70;48.43
20971;BME280;10644;48.834;10.088;2023-05-23T12:12:38;96676.44;;;22.74;49.12
20971;BME280;10644;48.834;10.088;2023-05-23T12:15:05;96669.84;;;22.62;49.77
20971;BME280;10644;48.834;10.088;2023-05-23T12:17:31;96662.38;;;22.75;50.17
20971;BME280;10644;48.834;10.088;2023-05-23T12:19:57;96668.13;;;23.28;48.70
20971;BME280;10644;48.834;10.088;2023-05-23T12:22:22;96667.81;;;23.39;47.55
20971;BME280;10644;48.834;10.088;2023-05-23T12:24:54;96673.34;;;23.20;47.40
20971;BME280;10644;48.834;10.088;2023-05-23T12:27:28;96667.22;;;22.95;45.84
20971;BME280;10644;48.834;10.088;2023-05-23T12:30:07;96667.09;;;22.71;46.62
20971;BME280;10644;48.834;10.088;2023-05-23T12:32:38;96663.34;;;22.66;46.39
20971;BME280;10644;48.834;10.088;2023-05-23T12:35:04;96661.94;;;22.79;46.37
20971;BME280;10644;48.834;10.088;2023-05-23T12:37:29;96652.16;;;22.89;46.02
20971;BME280;10644;48.834;10.088;2023-05-23T12:39:55;96650.41;;;23.14;45.19
20971;BME280;10644;48.834;10.088;2023-05-23T12:42:20;96655.41;;;23.41;44.77
20971;BME280;10644;48.834;10.088;2023-05-23T12:44:50;96651.63;;;23.27;45.62
20971;BME280;10644;48.834;10.088;2023-05-23T12:47:18;96642.66;;;23.54;45.82
20971;BME280;10644;48.834;10.088;2023-05-23T12:49:44;96645.59;;;23.35;46.31
20971;BME280;10644;48.834;10.088;2023-05-23T12:52:11;96645.81;;;23.08;47.21
20971;BME280;10644;48.834;10.088;2023-05-23T12:54:36;96649.09;;;23.02;47.18
20971;BME280;10644;48.834;10.088;2023-05-23T12:57:01;96659.88;;;22.99;46.43
20971;BME280;10644;48.834;10.088;2023-05-23T12:59:27;96658.53;;;22.95;47.36
20971;BME280;10644;48.834;10.088;2023-05-23T13:01:53;96660.94;;;23.30;47.07
20971;BME280;10644;48.834;10.088;2023-05-23T13:04:19;96652.31;;;23.53;45.78
20971;BME280;10644;48.834;10.088;2023-05-23T13:06:47;96646.91;;;23.47;46.40
20971;BME280;10644;48.834;10.088;2023-05-23T13:09:14;96664.75;;;23.51;46.02
20971;BME280;10644;48.834;10.088;2023-05-23T13:11:40;96658.22;;;23.63;46.17